Time;durP1;ratioP1;P1;durP2;ratioP2;P2;SDS_P1;SDS_P2;PMS_P1;PMS_P2;Temp;Humidity;BMP_temperature;BMP_pressure;BME280_temperature;BME280_humidity;BME280_pressure;Samples;Min_cycle;Max_cycle;Signal;HPM_P1;HPM_P2
2023/12/16 00:01:56;;;;;;;9.97;4.30;;;;;;;;;;5031862;28;20207;-68
2023/12/16 00:04:24;;;;;;;9.17;3.87;;;;;;;;;;5027466;28;20291;-68
2023/12/16 00:06:51;;;;;;;9.70;3.20;;;;;;;;;;5029985;28;20204;-68
2023/12/16 00:09:19;;;;;;;9.20;3.40;;;;;;;;;;5029884;28;20211;-69
2023/12/16 00:11:46;;;;;;;6.20;2.93;;;;;;;;;;5034220;28;20203;-69
2023/12/16 00:14:13;;;;;;;7.07;3.30;;;;;;;;;;5030977;28;20304;-68
2023/12/16 00:16:44;;;;;;;8.10;3.10;;;;;;;;;;5032252;28;20211;-67
2023/12/16 00:19:12;;;;;;;7.73;3.30;;;;;;;;;;5030582;28;20204;-68
2023/12/16 00:21:39;;;;;;;11.80;3.70;;;;;;;;;;5030330;28;20200;-65
2023/12/16 00:24:07;;;;;;;9.27;3.00;;;;;;;;;;5030024;28;20227;-65
2023/12/16 00:26:36;;;;;;;6.50;3.40;;;;;;;;;;5031699;28;20208;-63
2023/12/16 00:29:03;;;;;;;6.47;3.40;;;;;;;;;;5036143;28;20239;-63
2023/12/16 00:31:30;;;;;;;5.40;3.10;;;;;;;;;;5032350;28;20214;-63
2023/12/16 00:33:57;;;;;;;8.43;3.87;;;;;;;;;;5030704;28;20199;-63
2023/12/16 00:36:24;;;;;;;6.90;3.40;;;;;;;;;;5032388;28;20210;-65
2023/12/16 00:38:51;;;;;;;5.43;3.20;;;;;;;;;;5030927;28;20261;-64
2023/12/16 00:41:19;;;;;;;8.87;3.80;;;;;;;;;;5031663;28;20208;-63
2023/12/16 00:43:48;;;;;;;10.10;3.50;;;;;;;;;;5032206;28;20247;-64
2023/12/16 00:46:15;;;;;;;8.53;3.33;;;;;;;;;;5030581;28;20218;-63
2023/12/16 00:48:42;;;;;;;5.93;3.40;;;;;;;;;;5031565;28;20207;-64
2023/12/16 00:51:10;;;;;;;6.17;3.40;;;;;;;;;;5031333;28;20211;-64
2023/12/16 00:53:37;;;;;;;6.57;3.60;;;;;;;;;;5030880;28;20213;-65
2023/12/16 00:56:05;;;;;;;6.70;3.27;;;;;;;;;;5029126;28;20207;-64
2023/12/16 00:58:32;;;;;;;6.43;2.97;;;;;;;;;;5032473;28;20247;-63
2023/12/16 01:01:01;;;;;;;7.53;2.77;;;;;;;;;;5031424;28;20208;-63
2023/12/16 01:03:28;;;;;;;4.87;2.80;;;;;;;;;;5031385;28;20223;-63
2023/12/16 01:05:55;;;;;;;6.57;2.67;;;;;;;;;;5030688;28;20214;-64
2023/12/16 01:08:22;;;;;;;6.83;2.83;;;;;;;;;;5031495;28;20192;-64
2023/12/16 01:10:49;;;;;;;6.67;3.10;;;;;;;;;;5030249;28;20211;-64
2023/12/16 01:13:17;;;;;;;9.77;3.23;;;;;;;;;;5029875;28;20210;-64
2023/12/16 01:15:44;;;;;;;6.50;3.00;;;;;;;;;;5029178;28;20211;-65
2023/12/16 01:18:12;;;;;;;7.53;3.10;;;;;;;;;;5030912;28;20195;-64
2023/12/16 01:20:40;;;;;;;7.50;3.23;;;;;;;;;;5029629;28;20267;-63
2023/12/16 01:23:07;;;;;;;6.90;2.73;;;;;;;;;;5029173;28;20230;-63
2023/12/16 01:25:34;;;;;;;7.70;3.07;;;;;;;;;;5029100;28;20208;-63
2023/12/16 01:28:02;;;;;;;4.27;2.90;;;;;;;;;;5030684;28;20362;-63
2023/12/16 01:30:29;;;;;;;7.40;3.10;;;;;;;;;;5035260;28;20211;-63
2023/12/16 01:32:56;;;;;;;6.57;2.90;;;;;;;;;;5034202;28;20210;-63
2023/12/16 01:35:25;;;;;;;6.63;3.40;;;;;;;;;;5030909;28;20207;-63
2023/12/16 01:37:52;;;;;;;9.03;4.20;;;;;;;;;;5030619;28;20204;-64
2023/12/16 01:40:19;;;;;;;8.53;3.90;;;;;;;;;;5032806;28;20299;-64
2023/12/16 01:42:46;;;;;;;9.10;2.97;;;;;;;;;;5035879;28;20273;-64
2023/12/16 01:45:14;;;;;;;6.73;3.00;;;;;;;;;;5034560;28;20211;-64
2023/12/16 01:47:42;;;;;;;5.10;2.80;;;;;;;;;;5033559;28;20216;-63
2023/12/16 01:50:10;;;;;;;5.10;2.43;;;;;;;;;;5033758;28;20207;-64
2023/12/16 01:52:39;;;;;;;6.10;3.00;;;;;;;;;;5033730;28;20207;-63
2023/12/16 01:55:06;;;;;;;5.53;2.73;;;;;;;;;;5035046;28;20207;-63
2023/12/16 01:57:33;;;;;;;7.77;2.60;;;;;;;;;;5033637;28;20209;-63
2023/12/16 02:00:01;;;;;;;5.50;2.47;;;;;;;;;;5033809;28;20210;-64
2023/12/16 02:02:28;;;;;;;6.80;2.83;;;;;;;;;;5033983;28;20208;-64
2023/12/16 02:04:55;;;;;;;5.37;2.50;;;;;;;;;;5033356;28;20210;-65
2023/12/16 02:07:22;;;;;;;4.87;2.70;;;;;;;;;;5032592;28;20211;-64
2023/12/16 02:09:51;;;;;;;7.20;2.80;;;;;;;;;;5033376;28;21855;-64
2023/12/16 02:12:19;;;;;;;6.40;2.87;;;;;;;;;;5035553;28;20212;-64
2023/12/16 02:14:46;;;;;;;6.20;2.43;;;;;;;;;;5033919;28;20276;-64
2023/12/16 02:17:13;;;;;;;5.97;2.47;;;;;;;;;;5034833;28;20207;-65
2023/12/16 02:19:41;;;;;;;6.47;2.40;;;;;;;;;;5034309;28;20199;-64
2023/12/16 02:22:08;;;;;;;8.60;2.77;;;;;;;;;;5034327;28;20211;-67
2023/12/16 02:24:38;;;;;;;5.87;2.33;;;;;;;;;;5034260;28;20318;-69
2023/12/16 02:27:05;;;;;;;9.53;2.57;;;;;;;;;;5033578;28;20235;-68
2023/12/16 02:29:32;;;;;;;5.67;2.30;;;;;;;;;;5037933;28;20235;-68
2023/12/16 02:32:00;;;;;;;6.77;2.50;;;;;;;;;;5031770;28;20196;-67
2023/12/16 02:34:27;;;;;;;8.53;2.57;;;;;;;;;;5032453;28;20203;-67
2023/12/16 02:36:54;;;;;;;8.10;2.37;;;;;;;;;;5032155;28;20203;-68
2023/12/16 02:39:21;;;;;;;5.50;2.50;;;;;;;;;;5031759;28;20210;-70
2023/12/16 02:41:50;;;;;;;10.20;2.37;;;;;;;;;;5033262;28;20199;-68
2023/12/16 02:44:17;;;;;;;7.00;2.40;;;;;;;;;;5031834;28;20350;-68
2023/12/16 02:46:44;;;;;;;7.20;2.60;;;;;;;;;;5034048;28;20206;-68
2023/12/16 02:49:11;;;;;;;5.50;2.30;;;;;;;;;;5030630;28;20207;-69
2023/12/16 02:51:38;;;;;;;9.27;2.80;;;;;;;;;;5033426;28;20207;-69
2023/12/16 02:54:05;;;;;;;5.87;2.40;;;;;;;;;;5033159;28;20233;-68
2023/12/16 02:56:32;;;;;;;7.07;2.63;;;;;;;;;;5032721;28;20235;-70
2023/12/16 02:59:01;;;;;;;6.87;2.27;;;;;;;;;;5030703;28;20281;-69
2023/12/16 03:01:28;;;;;;;8.20;2.80;;;;;;;;;;5032459;28;20215;-70
2023/12/16 03:03:55;;;;;;;8.70;2.47;;;;;;;;;;5032353;28;20215;-70
2023/12/16 03:06:22;;;;;;;5.03;2.10;;;;;;;;;;5032735;28;20199;-69
2023/12/16 03:08:50;;;;;;;7.67;2.43;;;;;;;;;;5033332;28;20215;-69
2023/12/16 03:11:17;;;;;;;7.37;3.03;;;;;;;;;;5031963;28;20878;-68
2023/12/16 03:13:44;;;;;;;8.33;2.47;;;;;;;;;;5030440;28;20193;-69
2023/12/16 03:16:13;;;;;;;5.40;2.70;;;;;;;;;;5032011;28;20226;-69
2023/12/16 03:18:40;;;;;;;5.57;2.53;;;;;;;;;;5031910;28;20212;-69
2023/12/16 03:21:07;;;;;;;4.50;2.40;;;;;;;;;;5031879;28;20211;-69
2023/12/16 03:23:35;;;;;;;9.90;2.73;;;;;;;;;;5031573;28;20257;-69
2023/12/16 03:26:02;;;;;;;5.87;2.53;;;;;;;;;;5032247;28;20215;-68
2023/12/16 03:28:29;;;;;;;6.20;2.63;;;;;;;;;;5036718;28;20243;-69
2023/12/16 03:30:56;;;;;;;6.77;2.53;;;;;;;;;;5029850;28;20289;-67
2023/12/16 03:33:25;;;;;;;3.53;2.20;;;;;;;;;;5029624;28;20207;-70
2023/12/16 03:35:52;;;;;;;6.60;2.73;;;;;;;;;;5030816;28;20218;-69
2023/12/16 03:38:19;;;;;;;5.03;2.23;;;;;;;;;;5030415;28;20212;-67
2023/12/16 03:40:46;;;;;;;7.83;2.60;;;;;;;;;;5030359;28;20299;-70
2023/12/16 03:43:13;;;;;;;7.57;2.80;;;;;;;;;;5031994;28;20253;-68
2023/12/16 03:45:40;;;;;;;9.37;2.63;;;;;;;;;;5031523;28;20226;-69
2023/12/16 03:48:07;;;;;;;7.10;2.57;;;;;;;;;;5030180;28;20196;-69
2023/12/16 03:50:36;;;;;;;6.47;2.40;;;;;;;;;;5030291;28;20212;-68
2023/12/16 03:53:03;;;;;;;8.63;2.93;;;;;;;;;;5030987;28;20207;-70
2023/12/16 03:55:30;;;;;;;7.50;2.40;;;;;;;;;;5029460;28;20203;-69
2023/12/16 03:57:58;;;;;;;7.27;2.73;;;;;;;;;;5030646;28;20196;-70
2023/12/16 04:00:25;;;;;;;7.67;2.80;;;;;;;;;;5030281;28;20239;-69
2023/12/16 04:02:52;;;;;;;7.33;2.50;;;;;;;;;;5030788;28;20203;-68
2023/12/16 04:05:19;;;;;;;8.43;2.83;;;;;;;;;;5031507;28;20282;-69
2023/12/16 04:07:48;;;;;;;5.77;2.57;;;;;;;;;;5031699;28;20204;-68
2023/12/16 04:10:15;;;;;;;6.47;2.53;;;;;;;;;;5029717;28;20203;-68
2023/12/16 04:12:42;;;;;;;6.80;2.70;;;;;;;;;;5030011;28;20216;-67
2023/12/16 04:15:12;;;;;;;8.03;2.60;;;;;;;;;;5031190;28;20200;-69
2023/12/16 04:17:39;;;;;;;5.67;2.57;;;;;;;;;;5029766;28;20204;-69
2023/12/16 04:20:06;;;;;;;9.70;4.00;;;;;;;;;;5031001;28;20208;-69
2023/12/16 04:22:34;;;;;;;6.87;3.03;;;;;;;;;;5030226;28;20200;-69
2023/12/16 04:25:09;;;;;;;9.37;3.10;;;;;;;;;;5029858;28;20228;-69
2023/12/16 04:27:36;;;;;;;7.50;3.20;;;;;;;;;;5030075;28;20208;-69
2023/12/16 04:30:04;;;;;;;6.20;2.80;;;;;;;;;;5030302;28;20204;-69
2023/12/16 04:32:31;;;;;;;7.13;3.00;;;;;;;;;;5038127;28;20199;-70
2023/12/16 04:34:58;;;;;;;6.60;2.97;;;;;;;;;;5030466;28;20200;-68
2023/12/16 04:37:25;;;;;;;8.53;3.37;;;;;;;;;;5032773;28;20219;-69
2023/12/16 04:39:52;;;;;;;8.73;3.90;;;;;;;;;;5030009;28;20211;-69
2023/12/16 04:42:22;;;;;;;7.63;3.43;;;;;;;;;;5031067;28;20203;-69
2023/12/16 04:44:49;;;;;;;7.40;3.13;;;;;;;;;;5028117;28;20312;-69
2023/12/16 04:47:16;;;;;;;6.83;2.90;;;;;;;;;;5031272;28;20199;-69
2023/12/16 04:49:43;;;;;;;4.60;2.40;;;;;;;;;;5030631;28;20204;-70
2023/12/16 04:52:10;;;;;;;6.80;2.80;;;;;;;;;;5030748;28;20548;-69
2023/12/16 04:54:37;;;;;;;6.23;3.07;;;;;;;;;;5029135;28;20207;-68
2023/12/16 04:57:04;;;;;;;5.70;2.73;;;;;;;;;;5030224;28;20214;-70
2023/12/16 04:59:33;;;;;;;5.70;2.90;;;;;;;;;;5029438;28;20199;-69
2023/12/16 05:02:00;;;;;;;6.63;3.20;;;;;;;;;;5031323;28;20214;-70
2023/12/16 05:04:27;;;;;;;8.43;3.30;;;;;;;;;;5029922;28;20222;-68
2023/12/16 05:06:54;;;;;;;7.03;3.33;;;;;;;;;;5030998;28;20501;-69
2023/12/16 05:09:21;;;;;;;9.93;3.67;;;;;;;;;;5027127;28;20208;-68
2023/12/16 05:11:48;;;;;;;7.73;3.00;;;;;;;;;;5031654;28;20215;-69
2023/12/16 05:14:15;;;;;;;6.40;3.13;;;;;;;;;;5027359;28;20214;-68
2023/12/16 05:16:44;;;;;;;8.27;3.47;;;;;;;;;;5028980;28;20207;-70
2023/12/16 05:19:11;;;;;;;7.37;3.37;;;;;;;;;;5028925;28;20210;-67
2023/12/16 05:21:38;;;;;;;7.03;3.33;;;;;;;;;;5030456;28;20211;-68
2023/12/16 05:24:06;;;;;;;7.70;3.37;;;;;;;;;;5030290;28;20231;-69
2023/12/16 05:26:33;;;;;;;7.40;3.00;;;;;;;;;;5030957;28;20195;-68
2023/12/16 05:29:00;;;;;;;10.00;3.43;;;;;;;;;;5031034;28;20243;-68
2023/12/16 05:31:27;;;;;;;5.03;2.60;;;;;;;;;;5031749;28;20214;-69
2023/12/16 05:33:55;;;;;;;5.40;2.53;;;;;;;;;;5031999;28;20210;-69
2023/12/16 05:36:22;;;;;;;3.27;2.80;;;;;;;;;;5033460;28;20223;-69
2023/12/16 05:38:50;;;;;;;6.53;3.07;;;;;;;;;;5028423;28;20203;-69
2023/12/16 05:41:17;;;;;;;5.10;2.83;;;;;;;;;;5027758;28;20215;-69
2023/12/16 05:43:44;;;;;;;6.43;3.03;;;;;;;;;;5028576;28;20290;-68
2023/12/16 05:46:11;;;;;;;4.53;2.53;;;;;;;;;;5029238;28;20203;-69
2023/12/16 05:48:38;;;;;;;5.63;2.83;;;;;;;;;;5031228;28;20215;-68
2023/12/16 05:51:07;;;;;;;5.87;2.77;;;;;;;;;;5028689;28;20203;-69
2023/12/16 05:53:34;;;;;;;5.97;3.13;;;;;;;;;;5029391;28;20207;-64
2023/12/16 05:56:02;;;;;;;9.47;3.60;;;;;;;;;;5030865;28;20222;-65
2023/12/16 05:58:29;;;;;;;4.83;3.10;;;;;;;;;;5029760;28;20271;-64
2023/12/16 06:00:56;;;;;;;8.40;3.27;;;;;;;;;;5029362;28;20208;-66
2023/12/16 06:03:24;;;;;;;6.83;3.50;;;;;;;;;;5031612;28;20212;-64
2023/12/16 06:05:51;;;;;;;7.77;3.50;;;;;;;;;;5028816;28;20220;-64
2023/12/16 06:08:20;;;;;;;7.10;3.43;;;;;;;;;;5032496;28;20395;-64
2023/12/16 06:10:47;;;;;;;6.80;3.60;;;;;;;;;;5029121;28;20214;-65
2023/12/16 06:13:14;;;;;;;7.73;3.83;;;;;;;;;;5030052;28;20222;-64
2023/12/16 06:15:41;;;;;;;6.97;3.60;;;;;;;;;;5029615;28;20203;-64
2023/12/16 06:18:09;;;;;;;5.87;3.97;;;;;;;;;;5029411;28;20203;-65
2023/12/16 06:20:36;;;;;;;7.10;3.57;;;;;;;;;;5029437;28;20204;-65
2023/12/16 06:23:03;;;;;;;8.53;3.87;;;;;;;;;;5029507;28;20200;-65
2023/12/16 06:25:31;;;;;;;7.70;3.80;;;;;;;;;;5030845;28;20211;-64
2023/12/16 06:27:58;;;;;;;8.37;3.53;;;;;;;;;;5034240;28;20241;-64
2023/12/16 06:30:26;;;;;;;6.07;3.80;;;;;;;;;;5033986;28;20218;-64
2023/12/16 06:32:54;;;;;;;7.87;3.57;;;;;;;;;;5034535;28;20208;-64
2023/12/16 06:35:21;;;;;;;6.90;4.00;;;;;;;;;;5033315;28;20199;-64
2023/12/16 06:37:48;;;;;;;5.20;3.20;;;;;;;;;;5036261;28;20203;-64
2023/12/16 06:40:15;;;;;;;6.40;3.40;;;;;;;;;;5031912;28;20199;-65
2023/12/16 06:42:44;;;;;;;5.47;3.60;;;;;;;;;;5034956;28;20215;-64
2023/12/16 06:45:11;;;;;;;5.93;3.70;;;;;;;;;;5034465;28;20234;-64
2023/12/16 06:47:40;;;;;;;7.10;4.17;;;;;;;;;;5032158;28;20593;-65
2023/12/16 06:50:08;;;;;;;7.50;3.70;;;;;;;;;;5032931;28;20208;-64
2023/12/16 06:52:35;;;;;;;6.17;3.60;;;;;;;;;;5034394;28;20234;-65
2023/12/16 06:55:02;;;;;;;6.40;4.10;;;;;;;;;;5032122;28;20203;-66
2023/12/16 06:57:29;;;;;;;7.13;3.53;;;;;;;;;;5034793;28;20204;-64
2023/12/16 06:59:57;;;;;;;5.87;3.07;;;;;;;;;;5032914;28;20223;-64
2023/12/16 07:02:25;;;;;;;8.43;3.40;;;;;;;;;;5032982;28;20203;-65
2023/12/16 07:04:52;;;;;;;8.30;3.33;;;;;;;;;;5033823;28;20306;-63
2023/12/16 07:07:19;;;;;;;8.50;3.53;;;;;;;;;;5032747;28;20196;-65
2023/12/16 07:09:47;;;;;;;4.93;3.33;;;;;;;;;;5032732;28;20207;-65
2023/12/16 07:12:14;;;;;;;10.33;4.50;;;;;;;;;;5032755;28;20200;-64
2023/12/16 07:14:42;;;;;;;7.23;3.50;;;;;;;;;;5034048;28;20208;-65
2023/12/16 07:17:11;;;;;;;7.00;3.20;;;;;;;;;;5035121;28;20290;-63
2023/12/16 07:19:38;;;;;;;6.33;3.43;;;;;;;;;;5032346;28;20207;-64
2023/12/16 07:22:06;;;;;;;7.40;3.50;;;;;;;;;;5034092;28;20203;-65
2023/12/16 07:24:33;;;;;;;9.03;3.70;;;;;;;;;;5033762;28;20493;-65
2023/12/16 07:27:00;;;;;;;5.57;2.97;;;;;;;;;;5033583;28;20218;-64
2023/12/16 07:29:27;;;;;;;7.23;3.03;;;;;;;;;;5033333;28;20235;-65
2023/12/16 07:31:54;;;;;;;5.57;3.17;;;;;;;;;;5031097;28;20211;-63
2023/12/16 07:34:23;;;;;;;8.30;3.30;;;;;;;;;;5031868;28;20208;-65
2023/12/16 07:36:50;;;;;;;5.63;3.10;;;;;;;;;;5034833;28;21014;-65
2023/12/16 07:39:17;;;;;;;8.50;3.20;;;;;;;;;;5031792;28;20202;-65
2023/12/16 07:41:44;;;;;;;6.40;2.90;;;;;;;;;;5034538;28;20218;-64
2023/12/16 07:44:11;;;;;;;8.10;3.10;;;;;;;;;;5033120;28;20292;-64
2023/12/16 07:46:39;;;;;;;6.13;2.70;;;;;;;;;;5034717;28;21753;-64
2023/12/16 07:49:06;;;;;;;8.50;3.40;;;;;;;;;;5033491;28;20200;-63
2023/12/16 07:51:36;;;;;;;7.23;2.60;;;;;;;;;;5031182;28;20223;-64
2023/12/16 07:54:03;;;;;;;8.43;3.03;;;;;;;;;;5030957;28;20285;-64
2023/12/16 07:56:30;;;;;;;9.80;3.13;;;;;;;;;;5030848;28;20211;-64
2023/12/16 07:58:57;;;;;;;11.70;3.63;;;;;;;;;;5031642;28;20208;-64
2023/12/16 08:01:25;;;;;;;10.00;3.57;;;;;;;;;;5033794;28;20203;-65
2023/12/16 08:03:52;;;;;;;12.07;3.70;;;;;;;;;;5032047;28;20230;-64
2023/12/16 08:06:20;;;;;;;8.20;3.33;;;;;;;;;;5032712;28;20208;-64
2023/12/16 08:08:48;;;;;;;7.93;3.60;;;;;;;;;;5032289;28;20204;-64
2023/12/16 08:11:15;;;;;;;6.93;3.20;;;;;;;;;;5034071;28;20214;-64
2023/12/16 08:13:42;;;;;;;6.30;3.13;;;;;;;;;;5030675;28;20214;-64
2023/12/16 08:16:11;;;;;;;10.80;4.07;;;;;;;;;;5033101;28;20222;-65
2023/12/16 08:18:38;;;;;;;4.63;3.20;;;;;;;;;;5032112;28;20302;-64
2023/12/16 08:21:06;;;;;;;9.40;3.53;;;;;;;;;;5032584;28;20223;-63
2023/12/16 08:23:33;;;;;;;16.43;4.07;;;;;;;;;;5031283;28;20203;-65
2023/12/16 08:26:01;;;;;;;9.63;3.50;;;;;;;;;;5031713;28;20223;-63
2023/12/16 08:28:28;;;;;;;6.37;3.07;;;;;;;;;;5036465;28;20241;-65
2023/12/16 08:30:55;;;;;;;6.60;3.73;;;;;;;;;;5033031;28;20211;-63
2023/12/16 08:33:23;;;;;;;10.37;3.80;;;;;;;;;;5033980;28;20279;-64
2023/12/16 08:35:50;;;;;;;8.50;3.73;;;;;;;;;;5033242;28;20202;-63
2023/12/16 08:38:17;;;;;;;7.23;3.20;;;;;;;;;;5032792;28;20203;-64
2023/12/16 08:40:45;;;;;;;6.77;3.50;;;;;;;;;;5033362;28;20212;-64
2023/12/16 08:43:13;;;;;;;4.77;2.63;;;;;;;;;;5032265;28;20262;-65
2023/12/16 08:45:41;;;;;;;6.67;3.10;;;;;;;;;;5030583;28;20223;-65
2023/12/16 08:48:08;;;;;;;4.73;3.13;;;;;;;;;;5031545;28;20225;-65
2023/12/16 08:50:35;;;;;;;8.60;3.40;;;;;;;;;;5030748;28;20196;-65
2023/12/16 08:53:02;;;;;;;14.33;4.10;;;;;;;;;;5035699;28;20203;-64
2023/12/16 08:55:29;;;;;;;11.90;4.10;;;;;;;;;;5031937;28;20299;-64
2023/12/16 08:57:56;;;;;;;10.53;3.77;;;;;;;;;;5030105;28;20196;-64
2023/12/16 09:00:25;;;;;;;8.67;3.80;;;;;;;;;;5031835;28;22077;-65
2023/12/16 09:02:52;;;;;;;17.30;10.73;;;;;;;;;;5032577;28;20219;-65
2023/12/16 09:05:19;;;;;;;8.30;3.83;;;;;;;;;;5032494;28;20229;-64
2023/12/16 09:07:47;;;;;;;8.77;4.50;;;;;;;;;;5034122;28;20346;-64
2023/12/16 09:10:14;;;;;;;6.97;3.70;;;;;;;;;;5031815;28;20213;-63
2023/12/16 09:12:41;;;;;;;9.20;3.37;;;;;;;;;;5032162;28;20207;-63
2023/12/16 09:15:09;;;;;;;10.17;3.40;;;;;;;;;;5030681;28;20214;-63
2023/12/16 09:17:37;;;;;;;8.30;3.53;;;;;;;;;;5031607;28;20211;-64
2023/12/16 09:20:05;;;;;;;8.23;3.70;;;;;;;;;;5030681;28;20207;-63
2023/12/16 09:22:32;;;;;;;5.97;3.70;;;;;;;;;;5028681;28;20199;-65
2023/12/16 09:25:00;;;;;;;7.47;3.33;;;;;;;;;;5029897;28;20207;-64
2023/12/16 09:27:27;;;;;;;7.10;3.60;;;;;;;;;;5030193;28;20299;-63
2023/12/16 09:29:54;;;;;;;8.40;3.30;;;;;;;;;;5028923;28;20242;-63
2023/12/16 09:32:22;;;;;;;8.20;3.70;;;;;;;;;;5027842;28;20250;-64
2023/12/16 09:34:50;;;;;;;9.07;3.70;;;;;;;;;;5036221;28;20210;-63
2023/12/16 09:37:17;;;;;;;6.83;3.60;;;;;;;;;;5032388;28;20239;-63
2023/12/16 09:39:44;;;;;;;10.50;3.57;;;;;;;;;;5029409;28;20235;-64
2023/12/16 09:42:13;;;;;;;8.37;3.57;;;;;;;;;;5030976;28;20210;-63
2023/12/16 09:44:42;;;;;;;15.40;4.70;;;;;;;;;;5029485;28;20570;-64
2023/12/16 09:47:11;;;;;;;41.40;7.10;;;;;;;;;;5029667;28;20231;-63
2023/12/16 09:49:38;;;;;;;12.00;4.17;;;;;;;;;;5031009;28;20302;-64
2023/12/16 09:52:07;;;;;;;11.27;3.90;;;;;;;;;;5032444;28;20574;-63
2023/12/16 09:54:34;;;;;;;8.43;4.30;;;;;;;;;;5029469;28;20218;-64
2023/12/16 09:57:01;;;;;;;7.27;3.63;;;;;;;;;;5031023;28;20200;-63
2023/12/16 09:59:29;;;;;;;7.23;3.23;;;;;;;;;;5031517;28;20210;-63
2023/12/16 10:01:59;;;;;;;10.97;3.60;;;;;;;;;;5034406;28;20206;-64
2023/12/16 10:04:27;;;;;;;7.10;3.27;;;;;;;;;;5035317;28;20270;-63
2023/12/16 10:06:55;;;;;;;5.93;3.07;;;;;;;;;;5033053;28;20215;-63
2023/12/16 10:09:23;;;;;;;8.43;3.83;;;;;;;;;;5035344;28;20222;-63
2023/12/16 10:11:56;;;;;;;8.43;3.40;;;;;;;;;;5036070;28;20223;-63
2023/12/16 10:14:23;;;;;;;7.20;3.60;;;;;;;;;;5031399;28;20207;-63
2023/12/16 10:16:51;;;;;;;9.93;3.47;;;;;;;;;;5034468;28;20204;-63
2023/12/16 10:19:19;;;;;;;8.40;3.53;;;;;;;;;;5035215;28;20377;-65
2023/12/16 10:21:46;;;;;;;4.93;2.83;;;;;;;;;;5036388;28;20207;-63
2023/12/16 10:24:15;;;;;;;9.20;3.60;;;;;;;;;;5033149;28;20208;-63
2023/12/16 10:26:44;;;;;;;10.73;3.87;;;;;;;;;;5035067;28;20219;-63
2023/12/16 10:29:12;;;;;;;8.40;3.33;;;;;;;;;;5036756;28;20240;-63
2023/12/16 10:31:39;;;;;;;7.40;3.50;;;;;;;;;;5038906;28;20203;-63
2023/12/16 10:34:06;;;;;;;8.33;3.43;;;;;;;;;;5034041;28;20226;-68
2023/12/16 10:36:33;;;;;;;13.27;3.97;;;;;;;;;;5034948;28;20200;-68
2023/12/16 10:39:00;;;;;;;12.30;2.80;;;;;;;;;;5033577;28;20478;-68
2023/12/16 10:41:27;;;;;;;13.60;3.80;;;;;;;;;;5034884;28;20199;-69
2023/12/16 10:43:56;;;;;;;8.97;3.00;;;;;;;;;;5033319;28;20208;-68
2023/12/16 10:46:23;;;;;;;7.67;3.67;;;;;;;;;;5034880;28;20223;-68
2023/12/16 10:48:51;;;;;;;8.33;3.10;;;;;;;;;;5032783;28;20830;-69
2023/12/16 10:51:19;;;;;;;6.90;2.47;;;;;;;;;;5033096;28;20201;-67
2023/12/16 10:53:49;;;;;;;6.57;2.53;;;;;;;;;;5033449;28;20207;-65
2023/12/16 10:56:18;;;;;;;8.77;3.10;;;;;;;;;;5033538;28;20293;-66
2023/12/16 10:58:49;;;;;;;7.10;2.73;;;;;;;;;;5033208;28;20208;-66
2023/12/16 11:01:18;;;;;;;7.03;2.30;;;;;;;;;;5033162;28;20211;-66
2023/12/16 11:03:49;;;;;;;28.50;5.00;;;;;;;;;;5033190;28;20261;-66
2023/12/16 11:06:17;;;;;;;15.63;4.43;;;;;;;;;;5032940;28;20242;-66
2023/12/16 11:08:44;;;;;;;16.90;3.53;;;;;;;;;;5032021;28;20265;-66
2023/12/16 11:11:11;;;;;;;8.10;2.97;;;;;;;;;;5032272;28;20226;-66
2023/12/16 11:13:38;;;;;;;7.17;2.73;;;;;;;;;;5034447;28;20204;-66
2023/12/16 11:16:08;;;;;;;17.87;4.90;;;;;;;;;;5032240;28;20208;-67
2023/12/16 11:18:36;;;;;;;17.23;4.07;;;;;;;;;;5031702;28;20207;-66
2023/12/16 11:21:07;;;;;;;9.77;3.50;;;;;;;;;;5032123;28;20351;-66
2023/12/16 11:23:34;;;;;;;9.30;3.07;;;;;;;;;;5033514;28;20214;-67
2023/12/16 11:26:03;;;;;;;6.03;2.80;;;;;;;;;;5031769;28;20211;-67
2023/12/16 11:28:30;;;;;;;9.50;3.20;;;;;;;;;;5040059;28;20262;-66
2023/12/16 11:30:58;;;;;;;12.27;4.93;;;;;;;;;;5034641;28;20218;-67
2023/12/16 11:33:25;;;;;;;14.10;3.50;;;;;;;;;;5034367;28;20211;-67
2023/12/16 11:35:54;;;;;;;17.60;3.80;;;;;;;;;;5031292;28;20196;-66
2023/12/16 11:38:37;;;;;;;12.77;3.80;;;;;;;;;;5033421;28;20415;-67
2023/12/16 11:41:04;;;;;;;9.60;3.80;;;;;;;;;;5033232;28;20226;-66
2023/12/16 11:43:48;;;;;;;8.60;3.27;;;;;;;;;;5031762;28;20214;-67
2023/12/16 11:46:30;;;;;;;8.23;3.20;;;;;;;;;;5032328;28;20230;-66
2023/12/16 11:48:58;;;;;;;11.27;3.30;;;;;;;;;;5030084;28;20215;-67
2023/12/16 11:51:27;;;;;;;17.17;4.10;;;;;;;;;;5031976;28;20536;-65
2023/12/16 11:53:55;;;;;;;10.70;3.70;;;;;;;;;;5034136;28;20211;-63
2023/12/16 11:56:22;;;;;;;8.80;3.13;;;;;;;;;;5033354;28;20203;-63
2023/12/16 11:58:49;;;;;;;10.57;3.43;;;;;;;;;;5032785;28;20203;-62
2023/12/16 12:01:17;;;;;;;7.10;3.43;;;;;;;;;;5032425;28;20204;-63
2023/12/16 12:03:44;;;;;;;12.07;3.33;;;;;;;;;;5034792;28;20203;-62
2023/12/16 12:06:11;;;;;;;22.80;4.07;;;;;;;;;;5034856;28;20215;-61
2023/12/16 12:08:42;;;;;;;6.63;3.10;;;;;;;;;;5036355;28;20379;-63
2023/12/16 12:11:09;;;;;;;8.03;3.10;;;;;;;;;;5039046;28;20203;-63
2023/12/16 12:13:36;;;;;;;8.30;3.30;;;;;;;;;;5034445;28;20215;-62
2023/12/16 12:16:03;;;;;;;9.37;3.43;;;;;;;;;;5032998;28;20195;-63
2023/12/16 12:18:30;;;;;;;8.67;3.47;;;;;;;;;;5033993;28;20199;-63
2023/12/16 12:20:57;;;;;;;9.57;3.67;;;;;;;;;;5032023;28;20231;-63
2023/12/16 12:23:24;;;;;;;8.30;4.30;;;;;;;;;;5031692;28;20203;-62
2023/12/16 12:25:56;;;;;;;9.33;3.90;;;;;;;;;;5033498;28;20203;-62
2023/12/16 12:28:23;;;;;;;6.10;3.87;;;;;;;;;;5039484;28;20231;-62
2023/12/16 12:30:50;;;;;;;6.13;3.33;;;;;;;;;;5033530;28;20207;-63
2023/12/16 12:33:18;;;;;;;6.90;3.20;;;;;;;;;;5031675;28;20215;-63
2023/12/16 12:35:45;;;;;;;9.73;3.53;;;;;;;;;;5035543;28;20305;-62
2023/12/16 12:38:15;;;;;;;6.13;3.20;;;;;;;;;;5032180;28;20208;-61
2023/12/16 12:40:42;;;;;;;7.60;3.30;;;;;;;;;;5034597;28;20208;-62
2023/12/16 12:43:10;;;;;;;9.97;3.20;;;;;;;;;;5032426;28;20195;-62
2023/12/16 12:45:38;;;;;;;9.10;3.20;;;;;;;;;;5032865;28;20195;-61
2023/12/16 12:48:12;;;;;;;6.87;3.03;;;;;;;;;;5032965;28;20286;-61
2023/12/16 12:50:39;;;;;;;6.83;3.10;;;;;;;;;;5035441;28;20203;-63
2023/12/16 12:53:15;;;;;;;6.10;2.87;;;;;;;;;;5033140;28;20403;-61
2023/12/16 12:55:43;;;;;;;8.40;3.40;;;;;;;;;;5032310;28;20265;-63
2023/12/16 12:58:11;;;;;;;6.13;3.00;;;;;;;;;;5034324;28;20195;-61
2023/12/16 13:00:39;;;;;;;9.00;2.80;;;;;;;;;;5032937;28;20212;-62
2023/12/16 13:03:07;;;;;;;6.67;3.13;;;;;;;;;;5034978;28;20211;-62
2023/12/16 13:05:34;;;;;;;7.10;2.80;;;;;;;;;;5033442;28;20195;-62
2023/12/16 13:08:03;;;;;;;7.80;3.20;;;;;;;;;;5035107;28;20228;-62
2023/12/16 13:10:30;;;;;;;8.83;2.83;;;;;;;;;;5035347;28;20211;-62
2023/12/16 13:12:57;;;;;;;7.93;2.67;;;;;;;;;;5033163;28;20210;-62
2023/12/16 13:15:26;;;;;;;7.23;2.70;;;;;;;;;;5033556;28;20203;-62
2023/12/16 13:17:54;;;;;;;9.60;2.60;;;;;;;;;;5033146;28;20211;-63
2023/12/16 13:20:21;;;;;;;7.07;2.70;;;;;;;;;;5034192;28;20298;-62
2023/12/16 13:22:48;;;;;;;12.10;2.77;;;;;;;;;;5033255;28;20216;-62
2023/12/16 13:25:15;;;;;;;5.80;2.80;;;;;;;;;;5030892;28;20214;-62
2023/12/16 13:27:43;;;;;;;10.00;2.70;;;;;;;;;;5032769;28;20210;-63
2023/12/16 13:30:11;;;;;;;6.83;3.13;;;;;;;;;;5032662;28;20196;-62
2023/12/16 13:32:40;;;;;;;9.00;3.00;;;;;;;;;;5033685;28;20204;-61
2023/12/16 13:35:08;;;;;;;8.20;2.60;;;;;;;;;;5035500;28;20294;-62
2023/12/16 13:37:35;;;;;;;8.13;2.87;;;;;;;;;;5038682;28;20199;-62
2023/12/16 13:40:05;;;;;;;5.87;2.50;;;;;;;;;;5040470;28;20207;-61
2023/12/16 13:42:33;;;;;;;6.93;2.70;;;;;;;;;;5037315;28;20353;-62
2023/12/16 13:45:00;;;;;;;10.70;3.30;;;;;;;;;;5036994;28;20205;-62
2023/12/16 13:47:27;;;;;;;8.57;3.13;;;;;;;;;;5036082;28;20234;-62
2023/12/16 13:49:55;;;;;;;9.60;2.53;;;;;;;;;;5036915;28;20206;-61
2023/12/16 13:52:23;;;;;;;9.07;3.43;;;;;;;;;;5034807;28;20208;-63
2023/12/16 13:54:50;;;;;;;9.23;3.43;;;;;;;;;;5037785;28;20211;-62
2023/12/16 13:57:17;;;;;;;6.87;3.00;;;;;;;;;;5037396;28;20193;-63
2023/12/16 13:59:44;;;;;;;9.10;3.17;;;;;;;;;;5035552;28;20207;-62
2023/12/16 14:02:11;;;;;;;9.63;3.33;;;;;;;;;;5035952;28;20209;-63
2023/12/16 14:04:39;;;;;;;10.70;3.77;;;;;;;;;;5037076;28;20214;-63
2023/12/16 14:07:07;;;;;;;9.33;3.27;;;;;;;;;;5037573;28;20222;-63
2023/12/16 14:09:34;;;;;;;16.63;9.97;;;;;;;;;;5035471;28;20204;-62
2023/12/16 14:12:01;;;;;;;11.03;6.10;;;;;;;;;;5036121;28;20198;-63
2023/12/16 14:14:29;;;;;;;7.43;3.27;;;;;;;;;;5039123;28;20204;-64
2023/12/16 14:16:56;;;;;;;7.90;3.23;;;;;;;;;;5033857;28;20203;-63
2023/12/16 14:19:23;;;;;;;7.30;3.07;;;;;;;;;;5034945;28;20298;-64
2023/12/16 14:21:50;;;;;;;9.30;3.23;;;;;;;;;;5034805;28;20211;-63
2023/12/16 14:24:18;;;;;;;9.20;3.40;;;;;;;;;;5034023;28;20208;-63
2023/12/16 14:26:46;;;;;;;7.50;3.07;;;;;;;;;;5034648;28;20208;-63
2023/12/16 14:29:13;;;;;;;8.17;3.13;;;;;;;;;;5032930;28;20231;-65
2023/12/16 14:31:41;;;;;;;8.77;3.30;;;;;;;;;;5042662;28;20318;-63
2023/12/16 14:34:08;;;;;;;9.70;3.87;;;;;;;;;;5034472;28;20212;-62
2023/12/16 14:36:35;;;;;;;7.10;3.23;;;;;;;;;;5037615;28;20195;-62
2023/12/16 14:39:03;;;;;;;7.97;3.20;;;;;;;;;;5033873;28;20215;-63
2023/12/16 14:41:32;;;;;;;7.43;3.23;;;;;;;;;;5036864;28;20204;-63
2023/12/16 14:43:59;;;;;;;10.70;3.37;;;;;;;;;;5036718;28;20208;-62